Time;durP1;ratioP1;P1;durP2;ratioP2;P2;SDS_P1;SDS_P2;PMS_P1;PMS_P2;Temp;Humidity;BMP_temperature;BMP_pressure;BME280_temperature;BME280_humidity;BME280_pressure;Samples;Min_cycle;Max_cycle;Signal;HPM_P1;HPM_P2
2022/08/03 00:02:15;;;;;;;;;;;20.90;55.10;;;;;;5144636;27;19933;-45
2022/08/03 00:04:41;;;;;;;;;;;20.80;53.60;;;;;;5144727;27;19923;-46
2022/08/03 00:07:07;;;;;;;;;;;20.30;53.10;;;;;;5149102;27;19938;-48
2022/08/03 00:09:33;;;;;;;;;;;20.20;52.40;;;;;;5143537;27;20600;-47
2022/08/03 00:11:59;;;;;;;;;;;20.00;52.20;;;;;;5144349;27;20403;-47
2022/08/03 00:14:24;;;;;;;;;;;19.80;51.60;;;;;;5150077;27;19927;-47
2022/08/03 00:16:50;;;;;;;;;;;20.30;56.80;;;;;;5144815;27;19929;-48
2022/08/03 00:19:16;;;;;;;;;;;21.10;58.40;;;;;;5149927;27;19931;-46
2022/08/03 00:21:42;;;;;;;;;;;21.80;56.90;;;;;;5144442;27;19923;-51
2022/08/03 00:24:07;;;;;;;;;;;20.90;55.60;;;;;;5144385;27;20302;-47
2022/08/03 00:26:33;;;;;;;;;;;20.30;54.60;;;;;;5148067;27;20024;-50
2022/08/03 00:28:59;;;;;;;;;;;20.30;53.40;;;;;;5143700;27;20432;-50
2022/08/03 00:31:25;;;;;;;;;;;20.10;52.50;;;;;;5144021;27;20187;-48
2022/08/03 00:33:51;;;;;;;;;;;20.00;51.90;;;;;;5149800;27;20402;-45
2022/08/03 00:36:16;;;;;;;;;;;19.70;51.90;;;;;;5144173;27;19975;-46
2022/08/03 00:38:42;;;;;;;;;;;19.90;55.10;;;;;;5149354;27;19934;-45
2022/08/03 00:41:08;;;;;;;;;;;20.70;58.60;;;;;;5144185;27;19948;-46
2022/08/03 00:43:34;;;;;;;;;;;21.50;57.90;;;;;;5143257;27;20042;-47
2022/08/03 00:45:59;;;;;;;;;;;21.30;56.30;;;;;;5147771;27;19930;-50
2022/08/03 00:48:25;;;;;;;;;;;20.80;54.50;;;;;;5143722;27;20389;-45
2022/08/03 00:50:51;;;;;;;;;;;20.40;53.60;;;;;;5143655;27;20326;-45
2022/08/03 00:53:17;;;;;;;;;;;20.30;52.60;;;;;;5130772;27;19927;-46
2022/08/03 00:55:43;;;;;;;;;;;20.20;52.00;;;;;;5143668;27;19927;-46
2022/08/03 00:58:10;;;;;;;;;;;19.70;51.90;;;;;;5148720;27;19927;-54
2022/08/03 01:00:37;;;;;;;;;;;20.30;57.30;;;;;;5144879;27;19993;-47
2022/08/03 01:03:03;;;;;;;;;;;21.10;58.70;;;;;;5142272;27;19927;-46
2022/08/03 01:05:29;;;;;;;;;;;21.80;57.40;;;;;;5148234;27;19927;-46
2022/08/03 01:07:58;;;;;;;;;;;21.10;55.30;;;;;;5124825;27;20400;-46
2022/08/03 01:10:41;;;;;;;;;;;20.60;54.40;;;;;;5143418;27;19923;-46
2022/08/03 01:13:20;;;;;;;;;;;20.40;52.70;;;;;;5130276;27;19937;-47
2022/08/03 01:16:05;;;;;;;;;;;20.00;52.50;;;;;;5143279;27;19927;-47
2022/08/03 01:18:35;;;;;;;;;;;19.80;52.00;;;;;;5124624;27;20236;-45
2022/08/03 01:21:01;;;;;;;;;;;20.00;54.20;;;;;;5147395;27;19929;-47
2022/08/03 01:23:33;;;;;;;;;;;20.70;58.50;;;;;;5142333;27;19923;-46
2022/08/03 01:26:05;;;;;;;;;;;21.50;58.00;;;;;;5124616;27;19929;-45
2022/08/03 01:28:36;;;;;;;;;;;21.30;56.10;;;;;;5148709;27;19987;-45
2022/08/03 01:31:07;;;;;;;;;;;20.60;55.00;;;;;;5143236;27;20017;-47
2022/08/03 01:33:36;;;;;;;;;;;20.30;53.50;;;;;;5143047;27;20006;-46
2022/08/03 01:36:03;;;;;;;;;;;20.20;52.60;;;;;;5130006;27;20377;-49
2022/08/03 01:38:33;;;;;;;;;;;19.80;52.20;;;;;;5123857;27;19923;-49
2022/08/03 01:41:07;;;;;;;;;;;19.90;51.30;;;;;;5141930;27;20353;-50
2022/08/03 01:43:33;;;;;;;;;;;19.90;55.40;;;;;;5121865;27;19923;-46
2022/08/03 01:45:59;;;;;;;;;;;20.70;58.50;;;;;;5143109;27;19930;-47
2022/08/03 01:48:25;;;;;;;;;;;21.50;57.90;;;;;;5148301;27;19938;-46
2022/08/03 01:50:50;;;;;;;;;;;21.30;56.20;;;;;;5142659;27;19934;-46
2022/08/03 01:53:17;;;;;;;;;;;20.70;54.60;;;;;;5124093;27;19927;-47
2022/08/03 01:55:46;;;;;;;;;;;20.30;53.30;;;;;;5129428;27;19927;-47
2022/08/03 01:58:15;;;;;;;;;;;20.20;52.40;;;;;;5121650;27;19935;-50
2022/08/03 02:00:41;;;;;;;;;;;19.80;52.30;;;;;;5123060;27;20273;-47
2022/08/03 02:03:07;;;;;;;;;;;19.90;52.60;;;;;;5147948;27;20081;-47
2022/08/03 02:05:33;;;;;;;;;;;20.50;57.90;;;;;;5142825;27;19963;-46
2022/08/03 02:07:59;;;;;;;;;;;21.30;58.40;;;;;;5125370;27;19922;-55
2022/08/03 02:10:25;;;;;;;;;;;21.70;56.40;;;;;;5128573;27;20374;-47
2022/08/03 02:12:51;;;;;;;;;;;20.80;55.10;;;;;;5123525;27;19931;-45
2022/08/03 02:15:16;;;;;;;;;;;20.60;53.80;;;;;;5115785;27;20431;-48
2022/08/03 02:17:43;;;;;;;;;;;20.20;53.10;;;;;;5140945;27;20012;-46
2022/08/03 02:20:09;;;;;;;;;;;19.90;52.50;;;;;;5123238;27;19978;-47
2022/08/03 02:22:35;;;;;;;;;;;20.00;51.40;;;;;;5147536;27;20441;-47
2022/08/03 02:25:01;;;;;;;;;;;20.20;55.60;;;;;;5142231;27;19922;-48
2022/08/03 02:27:27;;;;;;;;;;;20.80;58.50;;;;;;5142085;27;20379;-48
2022/08/03 02:29:58;;;;;;;;;;;21.70;57.50;;;;;;5147575;27;20446;-49
2022/08/03 02:32:26;;;;;;;;;;;21.10;55.20;;;;;;5123564;27;19926;-47
2022/08/03 02:34:52;;;;;;;;;;;20.60;54.50;;;;;;5146084;27;19929;-47
2022/08/03 02:37:18;;;;;;;;;;;20.30;53.00;;;;;;5122895;27;20374;-46
2022/08/03 02:39:43;;;;;;;;;;;20.10;52.50;;;;;;5141738;27;19922;-46
2022/08/03 02:42:09;;;;;;;;;;;19.90;51.70;;;;;;5147424;27;19931;-49
2022/08/03 02:44:35;;;;;;;;;;;20.00;53.00;;;;;;5123611;27;19927;-49
2022/08/03 02:47:02;;;;;;;;;;;20.60;58.10;;;;;;5141924;27;19946;-51
2022/08/03 02:49:28;;;;;;;;;;;21.30;58.30;;;;;;5147227;27;20366;-47
2022/08/03 02:51:53;;;;;;;;;;;21.60;56.20;;;;;;5141241;27;19976;-45
2022/08/03 02:54:19;;;;;;;;;;;20.80;55.10;;;;;;5144080;27;19969;-53
2022/08/03 02:56:45;;;;;;;;;;;20.40;53.80;;;;;;5113361;27;19942;-46
2022/08/03 02:59:11;;;;;;;;;;;20.30;52.80;;;;;;5141620;27;19923;-45
2022/08/03 03:01:37;;;;;;;;;;;20.20;51.90;;;;;;5147273;27;19927;-45
2022/08/03 03:04:03;;;;;;;;;;;20.20;51.40;;;;;;5141315;27;19923;-46
2022/08/03 03:06:28;;;;;;;;;;;20.30;56.60;;;;;;5120145;27;19959;-48
2022/08/03 03:08:54;;;;;;;;;;;21.00;58.50;;;;;;5116432;27;19980;-47
2022/08/03 03:11:20;;;;;;;;;;;21.80;57.40;;;;;;5126139;27;20397;-50
2022/08/03 03:13:46;;;;;;;;;;;21.10;55.50;;;;;;5128397;27;19923;-55
2022/08/03 03:16:12;;;;;;;;;;;20.70;54.00;;;;;;5149915;27;20156;-47
2022/08/03 03:18:38;;;;;;;;;;;20.30;53.30;;;;;;5145806;27;19927;-48
2022/08/03 03:21:04;;;;;;;;;;;20.20;52.40;;;;;;5151150;27;19926;-45
2022/08/03 03:23:29;;;;;;;;;;;20.10;51.60;;;;;;5145433;27;19973;-48
2022/08/03 03:25:57;;;;;;;;;;;19.90;51.40;;;;;;5145686;27;19923;-46
2022/08/03 03:28:23;;;;;;;;;;;20.20;55.90;;;;;;5150636;27;19971;-50
2022/08/03 03:30:48;;;;;;;;;;;20.90;58.50;;;;;;5144356;27;20386;-48
2022/08/03 03:33:14;;;;;;;;;;;21.80;57.60;;;;;;5145113;27;19946;-48
2022/08/03 03:35:41;;;;;;;;;;;21.20;55.90;;;;;;5150902;27;20025;-45
2022/08/03 03:38:10;;;;;;;;;;;20.50;54.70;;;;;;5145451;27;20447;-46
2022/08/03 03:40:39;;;;;;;;;;;20.30;53.50;;;;;;5125306;27;20326;-47
2022/08/03 03:43:08;;;;;;;;;;;20.20;52.40;;;;;;5144963;27;19931;-46
2022/08/03 03:45:34;;;;;;;;;;;20.00;52.10;;;;;;5121568;27;19927;-46
2022/08/03 03:48:03;;;;;;;;;;;19.80;52.00;;;;;;5149052;27;20011;-47
2022/08/03 03:50:30;;;;;;;;;;;20.10;55.70;;;;;;5144369;27;20001;-48
2022/08/03 03:52:55;;;;;;;;;;;20.80;58.70;;;;;;5126293;27;20017;-49
2022/08/03 03:55:21;;;;;;;;;;;21.70;57.80;;;;;;5150585;27;19931;-46
2022/08/03 03:57:47;;;;;;;;;;;21.10;55.80;;;;;;5145256;27;19927;-46
2022/08/03 04:00:13;;;;;;;;;;;20.40;54.80;;;;;;5146601;27;19930;-56
2022/08/03 04:02:39;;;;;;;;;;;20.20;53.50;;;;;;5148890;27;19984;-46
2022/08/03 04:11:05;;;;;;;;;;;19.80;54.70;;;;;;5149991;27;19927;-46
2022/08/03 04:13:41;;;;;;;;;;;20.80;58.60;;;;;;5144614;27;19922;-47
2022/08/03 04:16:08;;;;;;;;;;;21.60;58.00;;;;;;5121434;27;19923;-47
2022/08/03 04:18:34;;;;;;;;;;;21.10;55.70;;;;;;5127806;27;20330;-46
2022/08/03 04:21:03;;;;;;;;;;;20.40;54.80;;;;;;5143475;27;19923;-49
2022/08/03 04:23:29;;;;;;;;;;;20.30;53.60;;;;;;5145096;27;20028;-52
2022/08/03 04:25:55;;;;;;;;;;;20.00;52.50;;;;;;5148006;27;20293;-47
2022/08/03 04:28:21;;;;;;;;;;;19.90;52.10;;;;;;5125494;27;19923;-48
2022/08/03 04:30:47;;;;;;;;;;;20.10;56.40;;;;;;5149804;27;20267;-46
2022/08/03 04:33:13;;;;;;;;;;;20.80;59.10;;;;;;5125974;27;19926;-46
2022/08/03 04:35:39;;;;;;;;;;;21.70;58.10;;;;;;5125717;27;20378;-46
2022/08/03 04:38:05;;;;;;;;;;;21.00;56.00;;;;;;5131033;27;19933;-48
2022/08/03 04:40:34;;;;;;;;;;;20.60;54.70;;;;;;5125643;27;20371;-47
2022/08/03 04:43:01;;;;;;;;;;;20.10;53.70;;;;;;5142908;27;20084;-50
2022/08/03 04:45:27;;;;;;;;;;;20.10;52.60;;;;;;5129973;27;19931;-48
2022/08/03 04:47:52;;;;;;;;;;;19.90;52.10;;;;;;5143688;27;20260;-46
2022/08/03 04:50:18;;;;;;;;;;;19.80;52.20;;;;;;5149500;27;19926;-46
2022/08/03 04:52:44;;;;;;;;;;;20.00;56.40;;;;;;5125786;27;20287;-49
2022/08/03 04:55:10;;;;;;;;;;;20.80;59.20;;;;;;5143936;27;19923;-46
2022/08/03 04:57:35;;;;;;;;;;;21.60;58.50;;;;;;5149280;27;19923;-47
2022/08/03 05:00:02;;;;;;;;;;;21.30;56.40;;;;;;5143460;27;20394;-44
2022/08/03 05:02:27;;;;;;;;;;;20.60;55.30;;;;;;5141918;27;19931;-46
2022/08/03 05:04:53;;;;;;;;;;;20.20;54.10;;;;;;5147211;27;20049;-46
2022/08/03 05:07:19;;;;;;;;;;;20.30;52.70;;;;;;5143465;27;20487;-46
2022/08/03 05:09:45;;;;;;;;;;;20.00;52.40;;;;;;5148869;27;20029;-52
2022/08/03 05:12:11;;;;;;;;;;;19.80;52.00;;;;;;5143949;27;19923;-50
2022/08/03 05:14:37;;;;;;;;;;;20.00;57.20;;;;;;5143610;27;20371;-47
2022/08/03 05:17:03;;;;;;;;;;;20.80;59.50;;;;;;5149038;27;19923;-47
2022/08/03 05:19:29;;;;;;;;;;;21.70;58.60;;;;;;5142181;27;20021;-49
2022/08/03 05:21:55;;;;;;;;;;;21.00;56.60;;;;;;5142056;27;19931;-47
2022/08/03 05:24:21;;;;;;;;;;;20.50;54.80;;;;;;5148491;27;20393;-45
2022/08/03 05:26:46;;;;;;;;;;;20.20;54.10;;;;;;5143054;27;19934;-47
2022/08/03 05:29:12;;;;;;;;;;;20.00;53.20;;;;;;5146119;27;19923;-56
2022/08/03 05:31:39;;;;;;;;;;;20.00;52.50;;;;;;5146096;27;20202;-48
2022/08/03 05:34:05;;;;;;;;;;;19.80;52.10;;;;;;5143093;27;20326;-48
2022/08/03 05:36:30;;;;;;;;;;;20.10;57.00;;;;;;5148597;27;19931;-45
2022/08/03 05:38:56;;;;;;;;;;;20.90;59.60;;;;;;5141150;27;20390;-47
2022/08/03 05:41:22;;;;;;;;;;;21.60;58.90;;;;;;5142356;27;20408;-47
2022/08/03 05:43:48;;;;;;;;;;;21.20;56.40;;;;;;5147920;27;19923;-45
2022/08/03 05:46:14;;;;;;;;;;;20.70;55.00;;;;;;5142836;27;19972;-46
2022/08/03 05:48:40;;;;;;;;;;;20.30;54.20;;;;;;5143030;27;19923;-53
2022/08/03 05:51:09;;;;;;;;;;;20.00;53.20;;;;;;5147963;27;19958;-47
2022/08/03 05:53:35;;;;;;;;;;;20.00;52.70;;;;;;5142495;27;19923;-48
2022/08/03 05:56:01;;;;;;;;;;;20.00;51.90;;;;;;5146898;27;20319;-49
2022/08/03 05:58:27;;;;;;;;;;;19.80;53.60;;;;;;5141466;27;19935;-48
2022/08/03 06:00:53;;;;;;;;;;;20.50;58.70;;;;;;5142471;27;19954;-47
2022/08/03 06:03:19;;;;;;;;;;;21.20;59.80;;;;;;5147942;27;19931;-46
2022/08/03 06:05:44;;;;;;;;;;;21.70;57.70;;;;;;5142561;27;19955;-46
2022/08/03 06:08:10;;;;;;;;;;;21.00;55.90;;;;;;5142275;27;20291;-46
2022/08/03 06:10:36;;;;;;;;;;;20.40;54.70;;;;;;5147648;27;19926;-47
2022/08/03 06:13:02;;;;;;;;;;;20.30;53.60;;;;;;5142308;27;19966;-47
2022/08/03 06:15:28;;;;;;;;;;;20.10;53.00;;;;;;5146367;27;19927;-48
2022/08/03 06:17:55;;;;;;;;;;;20.10;52.30;;;;;;5141550;27;20002;-49
2022/08/03 06:20:21;;;;;;;;;;;20.00;52.00;;;;;;5141951;27;19945;-47
2022/08/03 06:22:47;;;;;;;;;;;20.20;56.00;;;;;;5147610;27;19927;-46
2022/08/03 06:25:13;;;;;;;;;;;20.90;59.60;;;;;;5142174;27;20371;-46
2022/08/03 06:27:39;;;;;;;;;;;21.70;59.10;;;;;;5123371;27;20313;-45
2022/08/03 06:30:05;;;;;;;;;;;21.30;56.70;;;;;;5147492;27;19971;-47
2022/08/03 06:32:32;;;;;;;;;;;20.60;55.90;;;;;;5141125;27;19923;-47
2022/08/03 06:34:58;;;;;;;;;;;20.40;54.20;;;;;;5144720;27;20010;-56
2022/08/03 06:37:25;;;;;;;;;;;20.10;53.50;;;;;;5143542;27;20014;-46
2022/08/03 06:39:51;;;;;;;;;;;20.20;52.90;;;;;;5141836;27;20286;-49
2022/08/03 06:42:17;;;;;;;;;;;20.00;52.40;;;;;;5147523;27;19975;-49
2022/08/03 06:44:43;;;;;;;;;;;20.10;51.70;;;;;;5141206;27;19931;-46
2022/08/03 06:47:09;;;;;;;;;;;19.90;53.00;;;;;;5141797;27;19931;-47
2022/08/03 06:49:34;;;;;;;;;;;20.50;58.60;;;;;;5147242;27;19952;-47
2022/08/03 06:52:00;;;;;;;;;;;21.20;60.00;;;;;;5140616;27;19930;-46
2022/08/03 06:54:26;;;;;;;;;;;21.80;58.20;;;;;;5142341;27;19932;-54
2022/08/03 06:56:52;;;;;;;;;;;21.10;56.00;;;;;;5146257;27;20392;-47
2022/08/03 06:59:17;;;;;;;;;;;20.60;54.80;;;;;;5123464;27;19927;-47
2022/08/03 07:01:43;;;;;;;;;;;20.40;54.10;;;;;;5147426;27;19926;-47
2022/08/03 07:04:09;;;;;;;;;;;20.30;53.10;;;;;;5141649;27;19938;-46
2022/08/03 07:06:36;;;;;;;;;;;20.10;52.80;;;;;;5141733;27;20374;-47
2022/08/03 07:09:02;;;;;;;;;;;20.00;52.70;;;;;;5146654;27;20026;-50
2022/08/03 07:11:27;;;;;;;;;;;19.90;52.40;;;;;;5140303;27;19930;-50
2022/08/03 07:13:53;;;;;;;;;;;19.90;53.60;;;;;;5141290;27;19930;-47
2022/08/03 07:16:19;;;;;;;;;;;20.60;58.70;;;;;;5147039;27;19934;-47
2022/08/03 07:18:45;;;;;;;;;;;21.30;60.40;;;;;;5141475;27;20385;-47
2022/08/03 07:21:11;;;;;;;;;;;21.80;58.70;;;;;;5146953;27;20296;-45
2022/08/03 07:23:37;;;;;;;;;;;21.10;56.70;;;;;;5141523;27;20848;-46
2022/08/03 07:26:03;;;;;;;;;;;20.60;55.20;;;;;;5112750;27;19923;-46
2022/08/03 07:28:29;;;;;;;;;;;20.40;54.30;;;;;;5145589;27;20021;-47
2022/08/03 07:30:54;;;;;;;;;;;20.40;53.50;;;;;;5140848;27;19923;-46
2022/08/03 07:33:20;;;;;;;;;;;20.30;52.60;;;;;;5141283;27;20165;-51
2022/08/03 07:35:46;;;;;;;;;;;20.30;52.60;;;;;;5146814;27;19923;-46
2022/08/03 07:38:12;;;;;;;;;;;20.00;52.50;;;;;;5141452;27;19938;-46
2022/08/03 07:40:38;;;;;;;;;;;20.00;52.10;;;;;;5146672;27;20310;-47
2022/08/03 07:43:04;;;;;;;;;;;19.90;53.70;;;;;;5141354;27;20014;-46
2022/08/03 07:45:29;;;;;;;;;;;20.60;58.90;;;;;;5141189;27;20283;-46
2022/08/03 07:47:55;;;;;;;;;;;21.30;60.50;;;;;;5145278;27;20422;-46
2022/08/03 07:50:21;;;;;;;;;;;21.80;58.80;;;;;;5140535;27;20318;-45
2022/08/03 07:52:47;;;;;;;;;;;21.00;56.90;;;;;;5140977;27;19931;-45
2022/08/03 07:55:13;;;;;;;;;;;20.60;55.10;;;;;;5146623;27;19930;-45
2022/08/03 07:57:38;;;;;;;;;;;20.40;54.50;;;;;;5143836;27;19939;-45
2022/08/03 08:00:07;;;;;;;;;;;20.40;53.70;;;;;;5146019;27;20286;-53
2022/08/03 08:02:33;;;;;;;;;;;20.30;53.30;;;;;;5146586;27;20321;-46
2022/08/03 08:04:59;;;;;;;;;;;20.20;52.90;;;;;;5143245;27;19927;-45
2022/08/03 08:07:25;;;;;;;;;;;20.30;52.40;;;;;;5149014;27;20509;-48
2022/08/03 08:09:51;;;;;;;;;;;20.10;52.30;;;;;;5144417;27;19927;-48
2022/08/03 08:12:17;;;;;;;;;;;20.30;57.10;;;;;;5144724;27;19970;-49
2022/08/03 08:14:45;;;;;;;;;;;21.00;60.40;;;;;;5124403;27;19959;-51
2022/08/03 08:17:11;;;;;;;;;;;21.80;60.20;;;;;;5144690;27;20313;-50
2022/08/03 08:19:37;;;;;;;;;;;21.50;57.70;;;;;;5145190;27;19923;-54
2022/08/03 08:22:03;;;;;;;;;;;21.00;55.70;;;;;;5149390;27;20355;-46
2022/08/03 08:24:32;;;;;;;;;;;20.50;55.30;;;;;;5142998;27;19927;-46
2022/08/03 08:26:59;;;;;;;;;;;20.40;54.00;;;;;;5149331;27;19923;-45
2022/08/03 08:29:25;;;;;;;;;;;20.50;53.60;;;;;;5144355;27;19978;-46
2022/08/03 08:31:51;;;;;;;;;;;20.30;52.80;;;;;;5144447;27;20302;-48
2022/08/03 08:34:17;;;;;;;;;;;20.30;52.90;;;;;;5149784;27;19931;-46
2022/08/03 08:36:43;;;;;;;;;;;20.20;52.40;;;;;;5144164;27;20385;-45
2022/08/03 08:39:08;;;;;;;;;;;20.10;52.30;;;;;;5144134;27;20200;-45
2022/08/03 08:41:34;;;;;;;;;;;20.10;52.20;;;;;;5148360;27;19923;-50
2022/08/03 08:44:00;;;;;;;;;;;20.30;57.50;;;;;;5142957;27;19926;-46
2022/08/03 08:46:26;;;;;;;;;;;21.10;60.20;;;;;;5149213;27;19923;-45
2022/08/03 08:48:52;;;;;;;;;;;21.80;60.10;;;;;;5143981;27;20329;-48
2022/08/03 08:51:18;;;;;;;;;;;21.30;57.30;;;;;;5144225;27;19923;-46
2022/08/03 08:53:44;;;;;;;;;;;21.00;55.60;;;;;;5130960;27;19966;-46
2022/08/03 08:56:14;;;;;;;;;;;20.70;54.70;;;;;;5143782;27;19926;-46
2022/08/03 08:58:40;;;;;;;;;;;20.50;53.90;;;;;;5143731;27;19927;-48
2022/08/03 09:01:06;;;;;;;;;;;20.30;53.40;;;;;;5126249;27;19927;-49
2022/08/03 09:03:33;;;;;;;;;;;20.40;52.80;;;;;;5143128;27;19947;-46
2022/08/03 09:05:59;;;;;;;;;;;20.30;52.40;;;;;;5146743;27;20430;-52
2022/08/03 09:08:25;;;;;;;;;;;20.20;52.40;;;;;;5146318;27;19930;-45
2022/08/03 09:10:50;;;;;;;;;;;20.20;52.10;;;;;;5143519;27;20792;-46
2022/08/03 09:13:16;;;;;;;;;;;20.00;52.30;;;;;;5148926;27;19962;-49
2022/08/03 09:15:43;;;;;;;;;;;20.40;56.90;;;;;;5143519;27;19927;-47
2022/08/03 09:18:09;;;;;;;;;;;21.10;59.70;;;;;;5142257;27;19937;-47
2022/08/03 09:20:35;;;;;;;;;;;21.80;59.40;;;;;;5147765;27;20012;-48
2022/08/03 09:23:03;;;;;;;;;;;21.30;56.70;;;;;;5142989;27;19970;-45
2022/08/03 09:25:39;;;;;;;;;;;21.00;55.30;;;;;;5143167;27;19930;-47
2022/08/03 09:28:05;;;;;;;;;;;20.80;54.10;;;;;;5148587;27;19923;-45
2022/08/03 09:30:31;;;;;;;;;;;20.60;53.10;;;;;;5143068;27;20006;-45
2022/08/03 09:33:01;;;;;;;;;;;20.50;52.50;;;;;;5148404;27;19923;-46
2022/08/03 09:35:29;;;;;;;;;;;20.30;52.80;;;;;;5144244;27;19928;-51
2022/08/03 09:38:08;;;;;;;;;;;20.30;52.30;;;;;;5141443;27;19923;-46
2022/08/03 09:40:35;;;;;;;;;;;20.20;52.40;;;;;;5147916;27;20059;-46
2022/08/03 09:43:00;;;;;;;;;;;20.20;51.90;;;;;;5142854;27;20297;-46
2022/08/03 09:45:26;;;;;;;;;;;20.10;51.90;;;;;;5142968;27;19923;-45
2022/08/03 09:47:52;;;;;;;;;;;20.20;51.70;;;;;;5148190;27;19988;-46
2022/08/03 09:50:18;;;;;;;;;;;20.10;52.50;;;;;;5142498;27;20384;-51
2022/08/03 09:52:46;;;;;;;;;;;20.80;57.20;;;;;;5142657;27;20322;-46
2022/08/03 09:55:13;;;;;;;;;;;21.30;58.90;;;;;;5146852;27;19970;-49
2022/08/03 09:57:39;;;;;;;;;;;21.50;57.10;;;;;;5141432;27;19929;-46
2022/08/03 10:00:12;;;;;;;;;;;21.00;55.40;;;;;;5147548;27;19951;-51
2022/08/03 10:02:38;;;;;;;;;;;20.70;54.20;;;;;;5145750;27;19923;-46
2022/08/03 10:05:04;;;;;;;;;;;20.60;53.10;;;;;;5142522;27;19929;-48
2022/08/03 10:07:40;;;;;;;;;;;20.40;52.80;;;;;;5147607;27;19924;-47
2022/08/03 10:10:06;;;;;;;;;;;20.40;52.10;;;;;;5113699;27;20394;-46
2022/08/03 10:12:31;;;;;;;;;;;20.20;52.30;;;;;;5141989;27;19979;-48
2022/08/03 10:14:57;;;;;;;;;;;20.30;51.70;;;;;;5127640;27;20378;-46
2022/08/03 10:17:23;;;;;;;;;;;20.30;51.90;;;;;;5141790;27;19923;-46
2022/08/03 10:19:49;;;;;;;;;;;20.20;51.80;;;;;;5116763;27;19928;-48
2022/08/03 10:22:18;;;;;;;;;;;20.10;51.50;;;;;;5147626;27;20391;-48
2022/08/03 10:24:51;;;;;;;;;;;20.40;56.40;;;;;;5142005;27;19923;-48
2022/08/03 10:27:16;;;;;;;;;;;21.20;58.30;;;;;;5144926;27;19923;-56
2022/08/03 10:29:44;;;;;;;;;;;22.00;57.00;;;;;;5144973;27;19923;-45
2022/08/03 10:32:13;;;;;;;;;;;21.30;55.20;;;;;;5140443;27;19929;-47
2022/08/03 10:34:39;;;;;;;;;;;20.90;54.20;;;;;;5146598;27;19923;-46
2022/08/03 10:37:07;;;;;;;;;;;20.60;53.60;;;;;;5141633;27;20382;-45
2022/08/03 10:39:33;;;;;;;;;;;20.50;53.10;;;;;;5123432;27;19926;-46
2022/08/03 10:41:58;;;;;;;;;;;20.50;52.30;;;;;;5147511;27;20343;-46
2022/08/03 10:44:25;;;;;;;;;;;20.40;51.90;;;;;;5121715;27;19927;-49
2022/08/03 10:46:50;;;;;;;;;;;20.30;51.60;;;;;;5141532;27;19923;-47
2022/08/03 10:49:17;;;;;;;;;;;20.20;52.20;;;;;;5128315;27;19935;-48
2022/08/03 10:51:45;;;;;;;;;;;20.20;51.70;;;;;;5140260;27;19975;-45
2022/08/03 10:54:30;;;;;;;;;;;20.10;52.00;;;;;;5146735;27;19933;-45
2022/08/03 10:59:49;;;;;;;;;;;20.20;51.20;;;;;;5141896;27;20383;-45
2022/08/03 11:02:15;;;;;;;;;;;20.30;51.20;;;;;;5141357;27;19923;-46
2022/08/03 11:04:41;;;;;;;;;;;19.90;51.70;;;;;;5146774;27;20388;-46
2022/08/03 11:07:23;;;;;;;;;;;20.30;55.80;;;;;;5123070;27;19927;-46
2022/08/03 11:09:49;;;;;;;;;;;21.20;57.70;;;;;;5143887;27;20018;-53
2022/08/03 11:12:26;;;;;;;;;;;21.80;57.60;;;;;;5143077;27;19923;-46
2022/08/03 11:14:52;;;;;;;;;;;21.50;55.50;;;;;;5141313;27;19966;-46
2022/08/03 11:17:18;;;;;;;;;;;20.90;54.60;;;;;;5147270;27;20013;-46
2022/08/03 11:19:44;;;;;;;;;;;20.60;53.80;;;;;;5141400;27;20293;-44
2022/08/03 11:22:10;;;;;;;;;;;20.60;52.90;;;;;;5141565;27;19933;-47
2022/08/03 11:24:36;;;;;;;;;;;20.50;52.30;;;;;;5146893;27;19966;-46
2022/08/03 11:27:13;;;;;;;;;;;20.60;51.70;;;;;;5140062;27;20273;-47
2022/08/03 11:29:58;;;;;;;;;;;20.30;52.00;;;;;;5140646;27;19930;-45
2022/08/03 11:32:39;;;;;;;;;;;20.30;51.50;;;;;;5150818;27;20271;-45
2022/08/03 11:35:08;;;;;;;;;;;20.10;51.50;;;;;;5145679;27;19927;-45
2022/08/03 11:37:34;;;;;;;;;;;20.20;51.30;;;;;;5145461;27;19984;-44
2022/08/03 11:40:00;;;;;;;;;;;20.10;51.40;;;;;;5132186;27;19923;-46
2022/08/03 11:42:27;;;;;;;;;;;20.10;51.30;;;;;;5145401;27;20010;-44
2022/08/03 11:44:54;;;;;;;;;;;20.00;51.40;;;;;;5144625;27;19927;-47
2022/08/03 11:47:20;;;;;;;;;;;19.90;51.40;;;;;;5127933;27;20429;-47
2022/08/03 11:49:46;;;;;;;;;;;20.50;56.20;;;;;;5144855;27;19963;-47
2022/08/03 11:52:11;;;;;;;;;;;21.20;57.70;;;;;;5150526;27;19945;-45
2022/08/03 11:54:37;;;;;;;;;;;21.90;57.00;;;;;;5145326;27;19923;-46
2022/08/03 11:57:03;;;;;;;;;;;21.30;55.10;;;;;;5126461;27;20378;-48
2022/08/03 11:59:36;;;;;;;;;;;20.90;54.20;;;;;;5150358;27;20223;-46
2022/08/03 12:02:05;;;;;;;;;;;20.80;53.10;;;;;;5144742;27;19971;-46
2022/08/03 12:04:31;;;;;;;;;;;20.60;52.80;;;;;;5143264;27;19923;-45
2022/08/03 12:06:58;;;;;;;;;;;20.50;52.60;;;;;;5130787;27;20349;-51
2022/08/03 12:09:23;;;;;;;;;;;20.50;51.90;;;;;;5144508;27;20369;-46
2022/08/03 12:11:49;;;;;;;;;;;20.30;51.80;;;;;;5146744;27;20027;-54
2022/08/03 12:14:15;;;;;;;;;;;20.30;51.60;;;;;;5148408;27;19934;-47
2022/08/03 12:16:45;;;;;;;;;;;20.20;52.00;;;;;;5144363;27;20300;-46
2022/08/03 12:19:11;;;;;;;;;;;20.30;51.50;;;;;;5149630;27;19928;-50
2022/08/03 12:21:44;;;;;;;;;;;20.20;51.30;;;;;;5143528;27;19977;-46
2022/08/03 12:24:11;;;;;;;;;;;20.30;51.10;;;;;;5143290;27;19938;-46
2022/08/03 12:26:47;;;;;;;;;;;20.30;51.10;;;;;;5149551;27;19958;-44
2022/08/03 12:29:19;;;;;;;;;;;20.10;51.40;;;;;;5144332;27;19930;-46
2022/08/03 12:31:45;;;;;;;;;;;20.10;53.80;;;;;;5144540;27;19927;-47
2022/08/03 12:34:11;;;;;;;;;;;20.90;56.90;;;;;;5149644;27;19931;-48
2022/08/03 12:36:37;;;;;;;;;;;21.70;57.20;;;;;;5144025;27;19923;-49
2022/08/03 12:39:04;;;;;;;;;;;21.80;55.40;;;;;;5144311;27;19923;-46
2022/08/03 12:41:34;;;;;;;;;;;21.10;54.60;;;;;;5147449;27;20027;-48
2022/08/03 12:44:08;;;;;;;;;;;20.90;53.40;;;;;;5142995;27;19929;-48
2022/08/03 12:46:35;;;;;;;;;;;20.50;53.30;;;;;;5148218;27;19936;-54
2022/08/03 12:49:04;;;;;;;;;;;20.70;52.10;;;;;;5145812;27;19934;-45
2022/08/03 12:51:31;;;;;;;;;;;20.50;52.20;;;;;;5143923;27;20442;-48
2022/08/03 12:53:57;;;;;;;;;;;20.60;51.70;;;;;;5149243;27;19927;-47
2022/08/03 12:56:23;;;;;;;;;;;20.50;51.50;;;;;;5143875;27;19991;-47
2022/08/03 12:58:52;;;;;;;;;;;20.40;51.40;;;;;;5142604;27;19927;-48
2022/08/03 13:01:18;;;;;;;;;;;20.30;51.60;;;;;;5148176;27;20015;-49
2022/08/03 13:03:45;;;;;;;;;;;20.20;51.70;;;;;;5143662;27;20051;-45
2022/08/03 13:06:14;;;;;;;;;;;20.20;51.60;;;;;;5143421;27;19927;-48
2022/08/03 13:08:40;;;;;;;;;;;20.30;51.10;;;;;;5149235;27;19930;-51
2022/08/03 13:11:19;;;;;;;;;;;20.40;51.00;;;;;;5143378;27;19927;-47
2022/08/03 13:13:45;;;;;;;;;;;20.40;50.90;;;;;;5145591;27;19940;-57
2022/08/03 13:16:11;;;;;;;;;;;20.20;54.60;;;;;;5146493;27;19927;-54
2022/08/03 13:18:38;;;;;;;;;;;21.10;57.00;;;;;;5142093;27;19975;-46
2022/08/03 13:21:04;;;;;;;;;;;21.80;57.10;;;;;;5148007;27;19923;-47
2022/08/03 13:23:29;;;;;;;;;;;21.70;55.40;;;;;;5143155;27;19972;-46
2022/08/03 13:25:55;;;;;;;;;;;21.00;54.50;;;;;;5143364;27;20371;-45
2022/08/03 13:28:21;;;;;;;;;;;20.80;53.70;;;;;;5148749;27;19923;-48
2022/08/03 13:30:47;;;;;;;;;;;20.80;52.60;;;;;;5143045;27;19931;-45
2022/08/03 13:33:12;;;;;;;;;;;20.60;52.50;;;;;;5143095;27;19941;-49
2022/08/03 13:35:38;;;;;;;;;;;20.70;51.80;;;;;;5147222;27;19927;-46
2022/08/03 13:38:04;;;;;;;;;;;20.50;51.80;;;;;;5141562;27;19930;-49
2022/08/03 13:40:31;;;;;;;;;;;20.40;51.70;;;;;;5148374;27;19930;-46
2022/08/03 13:42:57;;;;;;;;;;;20.30;51.90;;;;;;5116619;27;19923;-51
2022/08/03 13:45:23;;;;;;;;;;;20.30;51.50;;;;;;5143089;27;19952;-47
2022/08/03 13:47:49;;;;;;;;;;;20.30;51.60;;;;;;5148101;27;20487;-45
2022/08/03 13:50:15;;;;;;;;;;;20.30;51.20;;;;;;5142373;27;19923;-45
2022/08/03 13:52:40;;;;;;;;;;;20.30;51.30;;;;;;5142443;27;19990;-49
2022/08/03 13:55:06;;;;;;;;;;;20.30;51.00;;;;;;5145388;27;19975;-46
2022/08/03 13:57:32;;;;;;;;;;;20.40;50.90;;;;;;5141983;27;19923;-46
2022/08/03 13:59:58;;;;;;;;;;;20.20;51.40;;;;;;5147863;27;19923;-47
2022/08/03 14:02:24;;;;;;;;;;;20.20;51.80;;;;;;5142796;27;20345;-46
2022/08/03 14:04:50;;;;;;;;;;;20.80;56.30;;;;;;5142688;27;19923;-46
2022/08/03 14:07:16;;;;;;;;;;;21.60;57.10;;;;;;5129489;27;19923;-47
2022/08/03 14:09:41;;;;;;;;;;;22.00;55.80;;;;;;5142366;27;20421;-46
2022/08/03 14:12:07;;;;;;;;;;;21.30;54.60;;;;;;5141443;27;20210;-47
2022/08/03 14:14:33;;;;;;;;;;;21.10;53.50;;;;;;5146681;27;19938;-47
2022/08/03 14:16:59;;;;;;;;;;;20.90;52.60;;;;;;5142165;27;19923;-49
2022/08/03 14:19:24;;;;;;;;;;;20.80;52.10;;;;;;5147808;27;19934;-46
2022/08/03 14:21:50;;;;;;;;;;;20.80;51.90;;;;;;5142290;27;19935;-46
2022/08/03 14:24:16;;;;;;;;;;;20.60;51.90;;;;;;5142068;27;19923;-47